Terminal Aerodrome Forecast
Issued by NWS

Home | Current Version | Previous Version | Text Only | Print | Product List | Glossary On
Versions: 1 2 3 4 5 6 7 8 9 10 11 12 13 14 15 16 17 18
000
FTUS43 KAPX 061127
TAFPLN
TAF
KPLN 061127Z 0612/0712 20004KT P6SM SKC
     FM061500 20012G22KT P6SM BKN150
     FM061900 20014G25KT P6SM BKN150
     FM062300 21011KT P6SM BKN018 OVC100
     FM070200 22010KT 6SM -SN OVC015=

USA.gov is the U.S. government's official web portal to all federal, state and local government web resources and services.